Time;durP1;ratioP1;P1;durP2;ratioP2;P2;SDS_P1;SDS_P2;PMS_P1;PMS_P2;Temp;Humidity;BMP_temperature;BMP_pressure;BME280_temperature;BME280_humidity;BME280_pressure;Samples;Min_cycle;Max_cycle;Signal;HPM_P1;HPM_P2
2023/07/07 00:02:01;;;;;;;6.90;2.53;;;;;;;;;;5103284;27;20036;-68
2023/07/07 00:04:28;;;;;;;6.43;3.20;;;;;;;;;;5107772;28;20180;-68
2023/07/07 00:06:54;;;;;;;8.20;3.13;;;;;;;;;;5104463;28;20081;-68
2023/07/07 00:09:21;;;;;;;5.28;2.63;;;;;;;;;;5106016;27;20437;-68
2023/07/07 00:11:47;;;;;;;7.28;2.97;;;;;;;;;;5104448;28;20119;-68
2023/07/07 00:14:13;;;;;;;5.93;2.58;;;;;;;;;;5102690;28;20040;-68
2023/07/07 00:16:40;;;;;;;7.55;3.75;;;;;;;;;;5091261;28;20043;-68
2023/07/07 00:19:09;;;;;;;6.13;2.95;;;;;;;;;;5102160;28;20566;-68
2023/07/07 00:21:40;;;;;;;8.27;3.22;;;;;;;;;;5104312;28;20138;-67
2023/07/07 00:24:07;;;;;;;6.55;2.72;;;;;;;;;;5134409;27;20055;-68
2023/07/07 00:26:34;;;;;;;9.00;2.90;;;;;;;;;;5100533;28;20087;-68
2023/07/07 00:29:00;;;;;;;6.35;2.70;;;;;;;;;;5100919;28;20116;-68
2023/07/07 00:31:28;;;;;;;6.90;3.65;;;;;;;;;;5108580;28;20120;-67
2023/07/07 00:33:54;;;;;;;7.57;4.10;;;;;;;;;;5110582;27;20468;-68
2023/07/07 00:36:20;;;;;;;7.32;3.50;;;;;;;;;;5102244;27;20051;-68
2023/07/07 00:38:46;;;;;;;8.30;4.13;;;;;;;;;;5109754;28;20100;-68
2023/07/07 00:41:13;;;;;;;9.52;4.43;;;;;;;;;;5108915;28;20483;-68
2023/07/07 00:43:39;;;;;;;9.68;4.70;;;;;;;;;;5104012;28;20040;-68
2023/07/07 00:46:05;;;;;;;8.02;4.38;;;;;;;;;;5099686;28;20384;-68
2023/07/07 00:48:37;;;;;;;7.55;4.32;;;;;;;;;;5105220;28;20047;-67
2023/07/07 00:51:10;;;;;;;13.13;4.93;;;;;;;;;;5091883;28;20047;-67
2023/07/07 00:53:38;;;;;;;8.98;4.72;;;;;;;;;;5105663;28;20044;-67
2023/07/07 00:56:07;;;;;;;9.20;5.28;;;;;;;;;;5106274;27;20047;-67
2023/07/07 00:58:34;;;;;;;9.20;5.30;;;;;;;;;;5108532;28;20053;-67
2023/07/07 01:01:05;;;;;;;11.65;4.60;;;;;;;;;;5109901;28;20073;-67
2023/07/07 01:03:38;;;;;;;7.15;4.80;;;;;;;;;;5106296;28;20047;-68
2023/07/07 01:06:06;;;;;;;9.70;5.00;;;;;;;;;;5107443;28;20122;-68
2023/07/07 01:08:33;;;;;;;8.35;4.80;;;;;;;;;;5110300;28;20047;-68
2023/07/07 01:10:59;;;;;;;7.20;4.07;;;;;;;;;;5108009;28;20694;-67
2023/07/07 01:13:26;;;;;;;12.80;5.35;;;;;;;;;;5101489;28;20079;-67
2023/07/07 01:16:05;;;;;;;6.85;4.78;;;;;;;;;;5104936;28;20443;-67
2023/07/07 01:18:50;;;;;;;11.25;5.20;;;;;;;;;;5104207;28;20464;-67
2023/07/07 01:21:48;;;;;;;7.65;4.35;;;;;;;;;;5108741;28;20550;-68
2023/07/07 01:24:26;;;;;;;11.00;4.47;;;;;;;;;;5073236;28;20055;-67
2023/07/07 01:26:56;;;;;;;9.85;4.55;;;;;;;;;;5097785;28;20040;-67
2023/07/07 01:29:22;;;;;;;7.10;4.47;;;;;;;;;;5109872;28;20107;-67
2023/07/07 01:31:54;;;;;;;8.65;4.50;;;;;;;;;;5093508;28;20135;-68
2023/07/07 01:34:20;;;;;;;11.68;4.80;;;;;;;;;;5103479;28;20335;-68
2023/07/07 01:36:46;;;;;;;10.68;4.57;;;;;;;;;;5104813;28;20566;-67
2023/07/07 01:39:13;;;;;;;10.88;3.90;;;;;;;;;;5102095;28;20135;-68
2023/07/07 01:41:48;;;;;;;8.30;5.18;;;;;;;;;;5099569;28;20031;-67
2023/07/07 01:44:21;;;;;;;8.57;4.22;;;;;;;;;;5100561;28;20817;-68
2023/07/07 01:46:51;;;;;;;7.72;4.53;;;;;;;;;;5101396;28;20047;-67
2023/07/07 01:49:25;;;;;;;10.00;4.57;;;;;;;;;;5098672;28;20044;-67
2023/07/07 01:51:51;;;;;;;;;;;;;;;;;;5100587;28;20047;-67
2023/07/07 01:54:18;;;;;;;8.02;4.93;;;;;;;;;;5097802;28;20010;-67
2023/07/07 01:56:46;;;;;;;9.07;4.90;;;;;;;;;;5101062;28;20044;-67
2023/07/07 01:59:13;;;;;;;9.88;4.38;;;;;;;;;;5115238;27;20040;-67
2023/07/07 02:01:40;;;;;;;7.50;4.70;;;;;;;;;;5099808;28;20035;-67
2023/07/07 02:04:06;;;;;;;10.27;4.78;;;;;;;;;;5101760;28;20043;-67
2023/07/07 02:06:32;;;;;;;9.38;4.40;;;;;;;;;;5102969;28;20436;-68
2023/07/07 02:08:58;;;;;;;9.75;4.90;;;;;;;;;;5103209;28;20051;-67
2023/07/07 02:11:24;;;;;;;7.10;4.93;;;;;;;;;;5101936;28;20104;-67
2023/07/07 02:13:50;;;;;;;11.02;4.95;;;;;;;;;;5099655;28;20035;-68
2023/07/07 02:16:17;;;;;;;9.77;4.60;;;;;;;;;;5101433;28;20036;-67
2023/07/07 02:18:48;;;;;;;18.00;5.00;;;;;;;;;;5103710;28;20071;-67
2023/07/07 02:21:18;;;;;;;9.45;5.00;;;;;;;;;;5105405;28;20046;-67
2023/07/07 02:23:44;;;;;;;9.00;4.78;;;;;;;;;;5104212;28;20039;-67
2023/07/07 02:26:14;;;;;;;6.70;3.95;;;;;;;;;;5103750;28;20036;-67
2023/07/07 02:28:40;;;;;;;6.63;4.57;;;;;;;;;;5106058;28;20043;-67
2023/07/07 02:31:07;;;;;;;7.43;5.22;;;;;;;;;;5104473;28;20051;-68
2023/07/07 02:33:33;;;;;;;8.75;4.47;;;;;;;;;;5105059;28;20115;-67
2023/07/07 02:36:04;;;;;;;10.73;4.80;;;;;;;;;;5102996;28;20630;-68
2023/07/07 02:38:30;;;;;;;9.18;4.63;;;;;;;;;;5107688;27;20053;-67
2023/07/07 02:40:57;;;;;;;9.95;4.25;;;;;;;;;;5105151;27;20067;-67
2023/07/07 02:43:23;;;;;;;7.78;4.72;;;;;;;;;;5100390;27;20043;-67
2023/07/07 02:45:49;;;;;;;7.45;3.92;;;;;;;;;;5110315;27;20050;-67
2023/07/07 02:48:17;;;;;;;8.93;4.60;;;;;;;;;;5108997;27;20051;-67
2023/07/07 02:50:43;;;;;;;10.63;5.22;;;;;;;;;;5105802;27;20043;-67
2023/07/07 02:53:09;;;;;;;8.57;4.88;;;;;;;;;;5105673;27;20071;-67
2023/07/07 02:55:35;;;;;;;6.93;4.40;;;;;;;;;;5106925;27;20047;-67
2023/07/07 02:58:01;;;;;;;7.55;4.72;;;;;;;;;;5102469;27;20455;-67
2023/07/07 03:00:28;;;;;;;5.85;4.05;;;;;;;;;;5104173;28;20177;-67
2023/07/07 03:02:54;;;;;;;9.30;5.28;;;;;;;;;;5111005;28;20071;-67
2023/07/07 03:05:20;;;;;;;9.98;4.75;;;;;;;;;;5102131;28;20043;-67
2023/07/07 03:07:47;;;;;;;7.60;5.00;;;;;;;;;;5100478;28;20063;-67
2023/07/07 03:10:13;;;;;;;9.85;4.72;;;;;;;;;;5099770;28;20044;-67
2023/07/07 03:12:39;;;;;;;8.85;5.30;;;;;;;;;;5103252;27;20054;-67
2023/07/07 03:15:06;;;;;;;7.75;5.10;;;;;;;;;;5102825;28;20035;-67
2023/07/07 03:17:32;;;;;;;8.68;4.95;;;;;;;;;;5101072;28;20036;-67
2023/07/07 03:19:58;;;;;;;9.32;5.38;;;;;;;;;;5103581;28;20401;-67
2023/07/07 03:22:24;;;;;;;11.45;5.40;;;;;;;;;;5103666;28;20040;-67
2023/07/07 03:24:51;;;;;;;8.80;5.68;;;;;;;;;;5101917;28;20039;-67
2023/07/07 03:27:17;;;;;;;9.70;5.35;;;;;;;;;;5100657;28;20038;-67
2023/07/07 03:29:43;;;;;;;7.10;4.78;;;;;;;;;;5103429;28;21388;-67
2023/07/07 03:32:09;;;;;;;7.35;5.03;;;;;;;;;;5102404;28;20050;-67
2023/07/07 03:34:36;;;;;;;9.45;5.63;;;;;;;;;;5103002;27;20379;-67
2023/07/07 03:37:03;;;;;;;8.70;5.68;;;;;;;;;;5103029;27;20123;-67
2023/07/07 03:39:29;;;;;;;10.43;5.13;;;;;;;;;;5099410;28;20047;-67
2023/07/07 03:41:55;;;;;;;8.10;5.25;;;;;;;;;;5102167;28;20050;-67
2023/07/07 03:44:23;;;;;;;7.45;4.93;;;;;;;;;;5101996;28;20376;-67
2023/07/07 03:46:49;;;;;;;7.30;5.22;;;;;;;;;;5100108;28;20422;-67
2023/07/07 03:49:15;;;;;;;16.10;6.38;;;;;;;;;;5103163;27;20583;-67
2023/07/07 03:51:41;;;;;;;9.38;6.07;;;;;;;;;;5102697;27;20483;-67
2023/07/07 03:54:08;;;;;;;15.85;6.50;;;;;;;;;;5099792;28;20513;-67
2023/07/07 03:56:34;;;;;;;10.82;7.72;;;;;;;;;;5102707;28;20036;-67
2023/07/07 03:59:00;;;;;;;11.27;7.03;;;;;;;;;;5100174;27;20146;-67
2023/07/07 04:01:26;;;;;;;13.48;8.20;;;;;;;;;;5102868;28;20416;-67
2023/07/07 04:03:53;;;;;;;12.80;8.85;;;;;;;;;;5102565;28;20035;-67
2023/07/07 04:06:19;;;;;;;16.02;9.07;;;;;;;;;;5103472;27;20069;-67
2023/07/07 04:08:46;;;;;;;15.20;8.70;;;;;;;;;;5102917;27;20043;-67
2023/07/07 04:11:16;;;;;;;14.52;8.48;;;;;;;;;;5104543;27;20491;-67
2023/07/07 04:13:43;;;;;;;11.88;7.72;;;;;;;;;;5101322;27;20078;-67
2023/07/07 04:16:11;;;;;;;12.57;8.77;;;;;;;;;;5134358;27;20048;-67
2023/07/07 04:18:38;;;;;;;13.52;8.57;;;;;;;;;;5100581;28;20075;-67
2023/07/07 04:21:09;;;;;;;20.02;10.73;;;;;;;;;;5102899;28;20044;-67
2023/07/07 04:23:36;;;;;;;16.50;10.65;;;;;;;;;;5104598;27;20051;-67
2023/07/07 04:26:03;;;;;;;19.90;11.05;;;;;;;;;;5101099;28;20114;-67
2023/07/07 04:28:32;;;;;;;20.80;11.88;;;;;;;;;;5102764;28;20047;-68
2023/07/07 04:30:59;;;;;;;21.17;12.50;;;;;;;;;;5102765;28;20047;-65
2023/07/07 04:33:26;;;;;;;18.23;12.18;;;;;;;;;;5103888;28;20075;-68
2023/07/07 04:35:53;;;;;;;21.67;13.93;;;;;;;;;;5101430;28;20039;-68
2023/07/07 04:38:22;;;;;;;20.00;14.27;;;;;;;;;;5104782;27;20045;-68
2023/07/07 04:40:48;;;;;;;23.15;14.80;;;;;;;;;;5109693;27;20502;-68
2023/07/07 04:43:14;;;;;;;18.02;13.50;;;;;;;;;;5108222;28;20142;-68
2023/07/07 04:45:40;;;;;;;22.02;14.20;;;;;;;;;;5111884;28;20040;-68
2023/07/07 04:48:06;;;;;;;19.98;14.45;;;;;;;;;;5102326;27;20059;-68
2023/07/07 04:50:33;;;;;;;17.98;14.07;;;;;;;;;;5098466;28;20206;-68
2023/07/07 04:52:59;;;;;;;25.90;16.05;;;;;;;;;;5133955;27;20043;-68
2023/07/07 04:55:26;;;;;;;18.08;13.38;;;;;;;;;;5101408;28;21074;-68
2023/07/07 04:57:52;;;;;;;26.63;13.75;;;;;;;;;;5101294;27;20040;-68
2023/07/07 05:00:18;;;;;;;18.27;13.75;;;;;;;;;;5104470;28;20538;-68
2023/07/07 05:02:45;;;;;;;18.05;13.68;;;;;;;;;;5102591;28;20051;-68
2023/07/07 05:05:11;;;;;;;20.50;14.00;;;;;;;;;;5104632;28;20036;-67
2023/07/07 05:07:37;;;;;;;16.90;13.75;;;;;;;;;;5099982;28;20489;-67
2023/07/07 05:10:04;;;;;;;20.65;14.85;;;;;;;;;;5104572;28;20115;-67
2023/07/07 05:12:30;;;;;;;19.98;13.27;;;;;;;;;;5106033;28;20100;-67
2023/07/07 05:14:56;;;;;;;20.10;14.05;;;;;;;;;;5111762;27;20491;-67
2023/07/07 05:17:22;;;;;;;17.88;13.27;;;;;;;;;;5109525;28;20043;-68
2023/07/07 05:19:49;;;;;;;21.08;13.20;;;;;;;;;;5110081;28;20090;-67
2023/07/07 05:22:15;;;;;;;17.20;14.43;;;;;;;;;;5111086;27;20039;-67
2023/07/07 05:24:41;;;;;;;22.77;14.93;;;;;;;;;;5104305;28;20082;-67
2023/07/07 05:27:07;;;;;;;23.58;14.48;;;;;;;;;;5110185;28;20032;-71
2023/07/07 05:29:33;;;;;;;19.05;13.10;;;;;;;;;;5110529;28;20085;-67
2023/07/07 05:32:00;;;;;;;18.27;13.15;;;;;;;;;;5105071;28;20040;-68
2023/07/07 05:34:26;;;;;;;19.75;13.65;;;;;;;;;;5106234;28;20143;-68
2023/07/07 05:36:52;;;;;;;25.77;14.35;;;;;;;;;;5106875;28;20035;-68
2023/07/07 05:39:18;;;;;;;17.05;13.85;;;;;;;;;;5104619;28;20396;-69
2023/07/07 05:41:44;;;;;;;19.33;13.48;;;;;;;;;;5096064;28;20032;-69
2023/07/07 05:44:11;;;;;;;22.45;12.50;;;;;;;;;;5104738;28;20040;-69
2023/07/07 05:46:37;;;;;;;18.40;13.43;;;;;;;;;;5105288;28;20492;-69
2023/07/07 05:49:03;;;;;;;20.25;13.23;;;;;;;;;;5111250;28;20142;-69
2023/07/07 05:51:29;;;;;;;26.83;13.18;;;;;;;;;;5111735;28;20040;-69
2023/07/07 05:53:56;;;;;;;19.92;12.15;;;;;;;;;;5109339;28;20044;-69
2023/07/07 05:56:25;;;;;;;22.17;12.75;;;;;;;;;;5100718;28;20123;-68
2023/07/07 05:58:52;;;;;;;19.75;13.30;;;;;;;;;;5106658;28;20085;-69
2023/07/07 06:01:18;;;;;;;18.27;12.40;;;;;;;;;;5107301;28;20122;-67
2023/07/07 06:03:45;;;;;;;22.88;12.70;;;;;;;;;;5097733;28;20074;-66
2023/07/07 06:06:12;;;;;;;17.20;12.05;;;;;;;;;;5116131;27;20048;-66
2023/07/07 06:08:39;;;;;;;19.25;11.95;;;;;;;;;;5106760;28;20487;-66
2023/07/07 06:11:06;;;;;;;15.32;11.05;;;;;;;;;;5110126;28;20104;-66
2023/07/07 06:13:32;;;;;;;14.98;11.10;;;;;;;;;;5107392;28;20047;-66
2023/07/07 06:15:59;;;;;;;18.85;12.00;;;;;;;;;;5112985;27;20164;-68
2023/07/07 06:18:25;;;;;;;18.17;10.98;;;;;;;;;;5116865;27;20394;-69
2023/07/07 06:20:52;;;;;;;15.27;11.70;;;;;;;;;;5113775;28;20084;-68
2023/07/07 06:23:19;;;;;;;18.42;12.05;;;;;;;;;;5115335;28;20031;-68
2023/07/07 06:25:45;;;;;;;18.73;11.35;;;;;;;;;;5114603;27;20048;-68
2023/07/07 06:28:11;;;;;;;18.45;11.23;;;;;;;;;;5113756;28;20435;-69
2023/07/07 06:30:37;;;;;;;16.20;11.52;;;;;;;;;;5113422;28;20130;-68
2023/07/07 06:33:03;;;;;;;16.42;10.55;;;;;;;;;;5115353;28;20043;-69
2023/07/07 06:35:30;;;;;;;15.88;11.35;;;;;;;;;;5113829;27;20039;-68
2023/07/07 06:37:56;;;;;;;17.92;10.95;;;;;;;;;;5113989;28;20119;-68
2023/07/07 06:40:22;;;;;;;14.23;10.45;;;;;;;;;;5116591;27;20423;-69
2023/07/07 06:42:55;;;;;;;18.15;10.05;;;;;;;;;;5112064;27;20335;-68
2023/07/07 06:45:21;;;;;;;21.90;12.13;;;;;;;;;;5113737;28;20051;-69
2023/07/07 06:47:48;;;;;;;20.17;10.07;;;;;;;;;;5114166;27;20395;-68
2023/07/07 06:50:16;;;;;;;16.35;10.23;;;;;;;;;;5112849;27;20074;-69
2023/07/07 06:52:43;;;;;;;12.80;9.27;;;;;;;;;;5113650;28;20046;-69
2023/07/07 06:55:09;;;;;;;12.75;8.82;;;;;;;;;;5113651;27;20044;-69
2023/07/07 06:57:35;;;;;;;15.95;9.35;;;;;;;;;;5108349;27;20099;-73
2023/07/07 07:00:02;;;;;;;12.80;8.85;;;;;;;;;;5113463;27;20058;-67
2023/07/07 07:02:28;;;;;;;15.40;9.25;;;;;;;;;;5114094;27;20047;-69
2023/07/07 07:04:54;;;;;;;14.93;8.52;;;;;;;;;;5104715;27;20043;-67
2023/07/07 07:07:20;;;;;;;12.70;8.90;;;;;;;;;;5109814;27;20078;-67
2023/07/07 07:09:46;;;;;;;16.23;8.43;;;;;;;;;;5111293;27;20059;-67
2023/07/07 07:12:12;;;;;;;18.55;8.73;;;;;;;;;;5106999;28;20459;-67
2023/07/07 07:14:39;;;;;;;13.13;9.07;;;;;;;;;;5110891;28;20086;-67
2023/07/07 07:17:05;;;;;;;12.63;7.95;;;;;;;;;;5111826;28;20047;-68
2023/07/07 07:19:31;;;;;;;11.82;7.53;;;;;;;;;;5111240;28;20047;-67
2023/07/07 07:21:57;;;;;;;13.02;8.65;;;;;;;;;;5101965;27;20159;-66
2023/07/07 07:24:24;;;;;;;14.05;7.82;;;;;;;;;;5112310;27;20050;-66
2023/07/07 07:26:50;;;;;;;14.15;7.95;;;;;;;;;;5114384;28;20116;-66
2023/07/07 07:29:16;;;;;;;11.38;8.02;;;;;;;;;;5113563;27;20039;-66
2023/07/07 07:31:43;;;;;;;12.52;8.43;;;;;;;;;;5110251;28;20043;-66
2023/07/07 07:34:29;;;;;;;13.50;7.68;;;;;;;;;;5112611;28;20163;-66
2023/07/07 07:36:56;;;;;;;11.32;8.07;;;;;;;;;;5114190;28;20040;-66
2023/07/07 07:39:23;;;;;;;17.13;7.90;;;;;;;;;;5113373;28;20098;-66
2023/07/07 07:41:50;;;;;;;14.35;8.40;;;;;;;;;;5113663;27;20390;-66
2023/07/07 07:44:17;;;;;;;13.50;6.97;;;;;;;;;;5095203;28;20043;-66
2023/07/07 07:46:44;;;;;;;11.27;7.45;;;;;;;;;;5111284;28;20060;-66
2023/07/07 07:49:10;;;;;;;11.10;6.20;;;;;;;;;;5114117;28;20043;-66
2023/07/07 07:51:38;;;;;;;9.80;5.43;;;;;;;;;;5113892;28;20142;-68
2023/07/07 07:54:09;;;;;;;11.05;5.82;;;;;;;;;;5113372;27;20046;-68
2023/07/07 07:56:35;;;;;;;10.32;5.38;;;;;;;;;;5112334;27;20047;-68
2023/07/07 07:59:02;;;;;;;8.68;5.50;;;;;;;;;;5114273;27;20046;-68
2023/07/07 08:01:28;;;;;;;8.73;4.93;;;;;;;;;;5111849;27;20051;-69
2023/07/07 08:03:55;;;;;;;9.50;5.50;;;;;;;;;;5095367;28;20059;-68
2023/07/07 08:06:21;;;;;;;13.77;5.40;;;;;;;;;;5114509;27;20114;-71
2023/07/07 08:08:47;;;;;;;9.13;4.68;;;;;;;;;;5112166;28;20483;-69
2023/07/07 08:11:14;;;;;;;11.98;4.57;;;;;;;;;;5112292;28;20043;-69
2023/07/07 08:13:40;;;;;;;10.95;4.63;;;;;;;;;;5112324;28;20495;-69
2023/07/07 08:16:07;;;;;;;9.77;4.75;;;;;;;;;;5111743;28;20059;-69
2023/07/07 08:18:33;;;;;;;9.68;4.50;;;;;;;;;;5113162;28;20483;-69
2023/07/07 08:21:00;;;;;;;8.45;3.95;;;;;;;;;;5112261;28;20044;-69
2023/07/07 08:23:26;;;;;;;8.15;4.50;;;;;;;;;;5111589;28;20054;-69
2023/07/07 08:25:52;;;;;;;8.10;4.20;;;;;;;;;;5111420;28;20065;-68
2023/07/07 08:28:18;;;;;;;8.25;4.35;;;;;;;;;;5112767;27;20051;-69
2023/07/07 08:30:45;;;;;;;10.05;4.20;;;;;;;;;;5112603;27;20122;-69
2023/07/07 08:33:12;;;;;;;12.63;4.30;;;;;;;;;;5111789;28;20055;-69
2023/07/07 08:35:39;;;;;;;7.47;3.95;;;;;;;;;;5111747;28;20050;-69
2023/07/07 08:38:05;;;;;;;9.25;3.97;;;;;;;;;;5094533;28;20040;-69
2023/07/07 08:40:35;;;;;;;6.50;2.90;;;;;;;;;;5111354;28;20155;-69
2023/07/07 08:43:01;;;;;;;7.00;3.38;;;;;;;;;;5110801;28;20078;-69
2023/07/07 08:45:28;;;;;;;7.80;3.72;;;;;;;;;;5113025;28;20497;-69
2023/07/07 08:48:00;;;;;;;9.00;3.30;;;;;;;;;;5111317;28;20066;-69
2023/07/07 08:50:35;;;;;;;7.53;3.35;;;;;;;;;;5110638;28;20082;-69
2023/07/07 08:53:20;;;;;;;6.20;3.10;;;;;;;;;;5111451;28;20455;-69
2023/07/07 08:56:05;;;;;;;8.02;3.72;;;;;;;;;;5093552;28;20055;-69
2023/07/07 08:58:32;;;;;;;9.05;3.53;;;;;;;;;;5140011;27;20051;-69
2023/07/07 09:01:16;;;;;;;7.35;3.08;;;;;;;;;;5112046;28;20149;-69
2023/07/07 09:03:47;;;;;;;4.75;2.60;;;;;;;;;;5091989;28;20559;-69
2023/07/07 09:06:26;;;;;;;7.05;2.72;;;;;;;;;;5112310;28;20487;-69
2023/07/07 09:09:10;;;;;;;5.90;2.97;;;;;;;;;;5110701;28;20523;-69
2023/07/07 09:11:56;;;;;;;6.45;2.30;;;;;;;;;;5110280;28;20407;-69
2023/07/07 09:14:23;;;;;;;5.88;2.70;;;;;;;;;;5112588;28;20074;-69
2023/07/07 09:16:50;;;;;;;7.07;2.55;;;;;;;;;;5110177;28;20035;-69
2023/07/07 09:19:19;;;;;;;6.80;2.30;;;;;;;;;;5110910;28;20118;-69
2023/07/07 09:21:45;;;;;;;7.20;2.78;;;;;;;;;;5112281;28;20042;-69
2023/07/07 09:24:35;;;;;;;6.75;2.80;;;;;;;;;;5111148;28;20074;-69
2023/07/07 09:27:05;;;;;;;7.35;2.88;;;;;;;;;;5099418;28;20055;-69
2023/07/07 09:29:31;;;;;;;4.93;2.35;;;;;;;;;;5110964;28;20498;-69
2023/07/07 09:31:59;;;;;;;8.15;2.33;;;;;;;;;;5111474;28;20039;-69
2023/07/07 09:34:25;;;;;;;5.20;2.50;;;;;;;;;;5111999;28;20081;-69
2023/07/07 09:36:51;;;;;;;5.50;2.42;;;;;;;;;;5113642;28;20466;-69
2023/07/07 09:39:21;;;;;;;6.45;2.35;;;;;;;;;;5113977;28;20544;-69
2023/07/07 09:41:54;;;;;;;5.88;2.13;;;;;;;;;;5114743;28;20059;-69
2023/07/07 09:44:39;;;;;;;4.95;2.10;;;;;;;;;;5114562;28;20094;-69
2023/07/07 09:47:06;;;;;;;7.35;2.67;;;;;;;;;;5100304;28;20048;-69
2023/07/07 09:49:42;;;;;;;4.82;2.28;;;;;;;;;;5116086;28;20130;-69
2023/07/07 09:52:29;;;;;;;6.78;2.38;;;;;;;;;;5114109;28;20044;-69
2023/07/07 09:54:57;;;;;;;4.28;2.20;;;;;;;;;;5113906;27;20043;-69
2023/07/07 09:57:47;;;;;;;5.35;2.30;;;;;;;;;;5116066;28;20115;-69
2023/07/07 10:00:18;;;;;;;4.50;2.03;;;;;;;;;;5076436;28;20092;-69
2023/07/07 10:02:45;;;;;;;4.50;2.08;;;;;;;;;;5115755;28;20050;-69
2023/07/07 10:05:11;;;;;;;7.45;2.17;;;;;;;;;;5113644;28;20459;-69
2023/07/07 10:07:39;;;;;;;5.22;2.17;;;;;;;;;;5114762;28;20051;-69
2023/07/07 10:10:07;;;;;;;4.85;2.40;;;;;;;;;;5114423;28;20047;-69
2023/07/07 10:12:33;;;;;;;7.45;2.20;;;;;;;;;;5115318;28;20071;-69
2023/07/07 10:14:59;;;;;;;6.70;2.25;;;;;;;;;;5114999;28;20048;-70
2023/07/07 10:17:28;;;;;;;5.72;2.10;;;;;;;;;;5114522;28;20152;-70
2023/07/07 10:19:59;;;;;;;4.82;2.10;;;;;;;;;;5113451;28;20036;-70
2023/07/07 10:22:25;;;;;;;6.95;2.50;;;;;;;;;;5114127;28;20051;-70
2023/07/07 10:24:51;;;;;;;4.40;2.00;;;;;;;;;;5112306;27;20039;-69
2023/07/07 10:27:25;;;;;;;4.60;1.88;;;;;;;;;;5114626;28;20039;-70
2023/07/07 10:29:56;;;;;;;4.35;2.05;;;;;;;;;;5097081;28;20391;-70
2023/07/07 10:32:23;;;;;;;5.28;2.15;;;;;;;;;;5115711;27;20444;-70
2023/07/07 10:34:52;;;;;;;4.15;1.85;;;;;;;;;;5112657;28;20142;-69
2023/07/07 10:37:26;;;;;;;5.78;1.92;;;;;;;;;;5115186;28;20032;-70
2023/07/07 10:39:53;;;;;;;7.45;2.30;;;;;;;;;;5115048;28;20126;-70
2023/07/07 10:42:23;;;;;;;4.60;2.17;;;;;;;;;;5112663;27;20044;-69
2023/07/07 10:44:57;;;;;;;7.53;2.40;;;;;;;;;;5110327;27;20047;-70
2023/07/07 10:47:33;;;;;;;3.97;1.90;;;;;;;;;;5113886;27;20051;-70
2023/07/07 10:50:00;;;;;;;5.22;2.03;;;;;;;;;;5108760;28;20131;-70
2023/07/07 10:52:43;;;;;;;4.35;1.90;;;;;;;;;;5114726;27;20146;-70
2023/07/07 10:55:16;;;;;;;5.22;2.22;;;;;;;;;;5111473;27;20048;-70
2023/07/07 10:58:09;;;;;;;5.10;2.10;;;;;;;;;;5124664;27;20510;-70
2023/07/07 11:00:45;;;;;;;5.80;1.75;;;;;;;;;;5091195;27;20051;-70
2023/07/07 11:03:21;;;;;;;4.88;1.88;;;;;;;;;;5116052;27;20049;-70
2023/07/07 11:06:14;;;;;;;4.97;2.08;;;;;;;;;;5105473;28;20055;-70
2023/07/07 11:08:48;;;;;;;5.32;2.35;;;;;;;;;;5112363;27;20121;-70
2023/07/07 11:11:26;;;;;;;4.95;2.20;;;;;;;;;;5129934;27;20075;-70
2023/07/07 11:14:14;;;;;;;6.78;2.20;;;;;;;;;;5111130;28;20118;-70
2023/07/07 11:16:48;;;;;;;4.68;2.20;;;;;;;;;;5112418;28;20051;-70
2023/07/07 11:19:14;;;;;;;6.07;2.00;;;;;;;;;;5113010;28;20382;-70
2023/07/07 11:22:04;;;;;;;3.83;1.88;;;;;;;;;;5114030;27;20043;-70
2023/07/07 11:24:49;;;;;;;5.32;2.13;;;;;;;;;;5112089;27;20118;-70
2023/07/07 11:27:21;;;;;;;7.50;2.20;;;;;;;;;;5112381;28;20031;-70
2023/07/07 11:29:50;;;;;;;4.65;1.90;;;;;;;;;;5114476;28;20200;-70
2023/07/07 11:32:37;;;;;;;6.93;2.28;;;;;;;;;;5113623;27;20036;-70
2023/07/07 11:35:22;;;;;;;4.72;2.13;;;;;;;;;;5111947;28;20046;-70
2023/07/07 11:37:51;;;;;;;4.78;2.25;;;;;;;;;;5112345;27;20052;-71
2023/07/07 11:40:33;;;;;;;7.43;2.25;;;;;;;;;;5122534;27;20047;-71
2023/07/07 11:43:18;;;;;;;3.90;1.77;;;;;;;;;;5113281;28;20054;-71
2023/07/07 11:45:44;;;;;;;3.65;1.75;;;;;;;;;;5105126;28;20290;-71
2023/07/07 11:48:24;;;;;;;6.03;1.83;;;;;;;;;;5107217;28;20070;-71
2023/07/07 11:51:06;;;;;;;5.15;1.98;;;;;;;;;;5107044;27;20085;-71
2023/07/07 11:53:41;;;;;;;4.00;2.17;;;;;;;;;;5104736;28;20062;-71
2023/07/07 11:56:19;;;;;;;4.82;2.00;;;;;;;;;;5105066;27;20104;-71
2023/07/07 11:59:00;;;;;;;4.13;2.00;;;;;;;;;;5104672;28;20050;-71
2023/07/07 12:01:31;;;;;;;7.03;2.25;;;;;;;;;;5106487;28;20048;-71
2023/07/07 12:04:05;;;;;;;5.93;2.33;;;;;;;;;;5103143;27;20063;-71
2023/07/07 12:06:31;;;;;;;5.32;2.42;;;;;;;;;;5104910;28;20396;-71
2023/07/07 12:09:03;;;;;;;4.93;1.88;;;;;;;;;;5103805;28;20116;-71
2023/07/07 12:11:32;;;;;;;6.13;1.98;;;;;;;;;;5106339;28;20032;-71
2023/07/07 12:14:07;;;;;;;5.75;2.53;;;;;;;;;;5105918;28;20053;-71
2023/07/07 12:16:35;;;;;;;5.07;2.10;;;;;;;;;;5107349;28;20085;-71
2023/07/07 12:19:09;;;;;;;6.63;2.17;;;;;;;;;;5105855;28;20046;-71
2023/07/07 12:21:36;;;;;;;5.95;2.10;;;;;;;;;;5103528;28;20464;-71
2023/07/07 12:24:12;;;;;;;6.20;2.15;;;;;;;;;;5131332;27;20092;-71
2023/07/07 12:26:42;;;;;;;3.83;1.90;;;;;;;;;;5101794;27;20048;-71
2023/07/07 12:29:11;;;;;;;5.45;2.20;;;;;;;;;;5102801;28;20043;-71
2023/07/07 12:31:38;;;;;;;4.50;2.28;;;;;;;;;;5104214;27;20480;-71
2023/07/07 12:34:18;;;;;;;7.30;2.38;;;;;;;;;;5104613;27;20104;-71
2023/07/07 12:36:46;;;;;;;3.78;2.22;;;;;;;;;;5112671;27;20096;-71
2023/07/07 12:39:12;;;;;;;4.75;1.80;;;;;;;;;;5106735;28;20048;-71
2023/07/07 12:41:38;;;;;;;4.35;2.30;;;;;;;;;;5114105;27;20130;-73
2023/07/07 12:44:05;;;;;;;4.10;2.08;;;;;;;;;;5111486;28;20043;-70
2023/07/07 12:46:34;;;;;;;3.70;2.05;;;;;;;;;;5110872;27;20059;-70
2023/07/07 12:49:04;;;;;;;8.27;3.13;;;;;;;;;;5112832;27;20052;-69
2023/07/07 12:51:32;;;;;;;6.13;2.22;;;;;;;;;;5113823;27;20065;-70
2023/07/07 12:53:59;;;;;;;7.57;2.45;;;;;;;;;;5121156;27;20557;-70
2023/07/07 12:56:27;;;;;;;6.95;2.00;;;;;;;;;;5111310;27;20035;-70
2023/07/07 12:58:55;;;;;;;5.68;2.08;;;;;;;;;;5111351;28;20155;-70
2023/07/07 13:01:40;;;;;;;7.15;2.22;;;;;;;;;;5110838;28;20043;-70
2023/07/07 13:04:19;;;;;;;6.40;2.70;;;;;;;;;;5107187;28;20040;-71
2023/07/07 13:06:46;;;;;;;5.30;1.95;;;;;;;;;;5103600;28;20135;-71
2023/07/07 13:09:12;;;;;;;5.80;2.25;;;;;;;;;;5083577;28;20043;-71
2023/07/07 13:11:40;;;;;;;5.22;2.20;;;;;;;;;;5105135;28;20347;-71
2023/07/07 13:14:26;;;;;;;4.85;2.50;;;;;;;;;;5085615;28;20503;-71
2023/07/07 13:16:53;;;;;;;5.85;2.20;;;;;;;;;;5132026;27;20374;-71
2023/07/07 13:19:19;;;;;;;4.75;2.10;;;;;;;;;;5128872;27;20089;-71
2023/07/07 13:21:46;;;;;;;5.78;2.67;;;;;;;;;;5104251;28;20039;-71
2023/07/07 13:24:17;;;;;;;5.03;2.47;;;;;;;;;;5102182;28;20046;-71
2023/07/07 13:26:43;;;;;;;5.10;2.35;;;;;;;;;;5105326;28;20042;-69
2023/07/07 13:29:09;;;;;;;3.75;2.05;;;;;;;;;;5105448;28;20097;-69
2023/07/07 13:31:39;;;;;;;5.82;2.45;;;;;;;;;;5105623;28;20077;-69
2023/07/07 13:34:07;;;;;;;5.43;1.98;;;;;;;;;;5085520;28;20340;-69
2023/07/07 13:36:33;;;;;;;5.55;2.67;;;;;;;;;;5103321;28;20044;-69
2023/07/07 13:39:00;;;;;;;5.13;2.70;;;;;;;;;;5104805;28;20040;-69
2023/07/07 13:41:27;;;;;;;4.68;2.47;;;;;;;;;;5105120;28;20104;-69
2023/07/07 13:43:55;;;;;;;5.55;2.30;;;;;;;;;;5106215;28;20039;-69
2023/07/07 13:46:25;;;;;;;4.28;2.30;;;;;;;;;;5106927;28;20048;-69
2023/07/07 13:49:01;;;;;;;4.18;2.20;;;;;;;;;;5105354;28;20388;-69
2023/07/07 13:51:30;;;;;;;6.70;2.50;;;;;;;;;;5110211;28;20625;-69
2023/07/07 13:53:57;;;;;;;4.93;2.30;;;;;;;;;;5110607;28;20040;-69
2023/07/07 13:56:23;;;;;;;5.80;2.53;;;;;;;;;;5110808;28;20047;-69
2023/07/07 13:58:51;;;;;;;4.10;2.08;;;;;;;;;;5110649;27;20038;-69
2023/07/07 14:01:26;;;;;;;10.25;2.80;;;;;;;;;;5111632;28;20455;-69
2023/07/07 14:03:53;;;;;;;5.80;2.58;;;;;;;;;;5110634;28;20044;-69
2023/07/07 14:06:21;;;;;;;5.05;2.08;;;;;;;;;;5112335;28;20042;-69
2023/07/07 14:08:47;;;;;;;5.53;2.15;;;;;;;;;;5110372;28;20123;-69
2023/07/07 14:11:19;;;;;;;5.05;2.20;;;;;;;;;;5110286;28;20122;-69
2023/07/07 14:13:52;;;;;;;4.60;2.05;;;;;;;;;;5110721;28;20048;-69
2023/07/07 14:16:22;;;;;;;5.30;2.40;;;;;;;;;;5111550;28;20032;-69
2023/07/07 14:19:00;;;;;;;4.18;2.53;;;;;;;;;;5112605;28;20039;-69
2023/07/07 14:21:27;;;;;;;3.67;1.90;;;;;;;;;;5111643;28;20479;-69
2023/07/07 14:23:53;;;;;;;12.20;2.42;;;;;;;;;;5114041;28;20453;-69
2023/07/07 14:26:25;;;;;;;3.78;2.15;;;;;;;;;;5114134;28;20562;-69
2023/07/07 14:28:55;;;;;;;3.60;2.05;;;;;;;;;;5115293;28;20047;-69
2023/07/07 14:31:21;;;;;;;5.95;2.63;;;;;;;;;;5113835;28;20039;-69
2023/07/07 14:33:54;;;;;;;4.47;2.50;;;;;;;;;;5111630;27;20083;-69
2023/07/07 14:36:25;;;;;;;4.25;2.60;;;;;;;;;;5146380;27;20082;-68
2023/07/07 14:38:56;;;;;;;7.93;2.33;;;;;;;;;;5097175;28;20130;-68
2023/07/07 14:41:23;;;;;;;7.38;2.42;;;;;;;;;;5096183;28;20043;-68
2023/07/07 14:43:49;;;;;;;5.50;2.38;;;;;;;;;;5115183;28;20124;-68
2023/07/07 14:46:21;;;;;;;3.97;2.40;;;;;;;;;;5114071;28;20039;-68
2023/07/07 14:48:50;;;;;;;5.75;2.30;;;;;;;;;;5095897;28;20097;-69